sensor_id;sensor_type;location;lat;lon;timestamp;P1;durP1;ratioP1;P2;durP2;ratioP2
9222;SDS011;7557;51.698;3.942;2022-10-31T00:00:25;6.50;;;5.13;;
9222;SDS011;7557;51.698;3.942;2022-10-31T00:02:52;6.03;;;5.45;;
9222;SDS011;7557;51.698;3.942;2022-10-31T00:05:20;6.47;;;5.35;;
9222;SDS011;7557;51.698;3.942;2022-10-31T00:07:47;5.90;;;5.40;;
9222;SDS011;7557;51.698;3.942;2022-10-31T00:10:18;6.23;;;5.73;;
9222;SDS011;7557;51.698;3.942;2022-10-31T00:12:47;6.60;;;4.97;;
9222;SDS011;7557;51.698;3.942;2022-10-31T00:15:15;5.67;;;5.27;;
9222;SDS011;7557;51.698;3.942;2022-10-31T00:17:42;6.55;;;5.95;;
9222;SDS011;7557;51.698;3.942;2022-10-31T00:20:10;5.63;;;5.23;;
9222;SDS011;7557;51.698;3.942;2022-10-31T00:22:37;6.00;;;5.60;;
9222;SDS011;7557;51.698;3.942;2022-10-31T00:25:05;6.93;;;6.07;;
9222;SDS011;7557;51.698;3.942;2022-10-31T00:27:33;5.87;;;5.37;;
9222;SDS011;7557;51.698;3.942;2022-10-31T00:30:02;6.07;;;5.68;;
9222;SDS011;7557;51.698;3.942;2022-10-31T00:32:30;6.38;;;5.88;;
9222;SDS011;7557;51.698;3.942;2022-10-31T00:34:57;5.65;;;5.15;;
9222;SDS011;7557;51.698;3.942;2022-10-31T00:37:24;6.18;;;5.60;;
9222;SDS011;7557;51.698;3.942;2022-10-31T00:39:53;5.68;;;5.28;;
9222;SDS011;7557;51.698;3.942;2022-10-31T00:42:20;6.27;;;5.77;;
9222;SDS011;7557;51.698;3.942;2022-10-31T00:44:48;6.13;;;5.63;;
9222;SDS011;7557;51.698;3.942;2022-10-31T00:47:16;6.80;;;6.18;;
9222;SDS011;7557;51.698;3.942;2022-10-31T00:49:44;6.80;;;5.85;;
9222;SDS011;7557;51.698;3.942;2022-10-31T00:52:11;5.82;;;5.38;;
9222;SDS011;7557;51.698;3.942;2022-10-31T00:54:38;5.53;;;5.13;;
9222;SDS011;7557;51.698;3.942;2022-10-31T00:57:06;6.22;;;5.63;;
9222;SDS011;7557;51.698;3.942;2022-10-31T00:59:33;6.63;;;6.03;;
9222;SDS011;7557;51.698;3.942;2022-10-31T01:02:01;6.30;;;5.90;;
9222;SDS011;7557;51.698;3.942;2022-10-31T01:04:29;6.03;;;5.72;;
9222;SDS011;7557;51.698;3.942;2022-10-31T01:06:57;6.57;;;5.97;;
9222;SDS011;7557;51.698;3.942;2022-10-31T01:09:24;6.15;;;5.65;;
9222;SDS011;7557;51.698;3.942;2022-10-31T01:11:52;7.43;;;6.73;;
9222;SDS011;7557;51.698;3.942;2022-10-31T01:14:19;6.10;;;5.60;;
9222;SDS011;7557;51.698;3.942;2022-10-31T01:16:47;5.97;;;5.43;;
9222;SDS011;7557;51.698;3.942;2022-10-31T01:19:14;6.33;;;5.90;;
9222;SDS011;7557;51.698;3.942;2022-10-31T01:21:43;6.40;;;5.80;;
9222;SDS011;7557;51.698;3.942;2022-10-31T01:24:30;6.70;;;6.20;;
9222;SDS011;7557;51.698;3.942;2022-10-31T01:26:57;7.45;;;6.13;;
9222;SDS011;7557;51.698;3.942;2022-10-31T01:29:25;6.45;;;5.95;;
9222;SDS011;7557;51.698;3.942;2022-10-31T01:31:52;6.57;;;5.93;;
9222;SDS011;7557;51.698;3.942;2022-10-31T01:34:20;6.10;;;5.70;;
9222;SDS011;7557;51.698;3.942;2022-10-31T01:36:47;6.70;;;6.10;;
9222;SDS011;7557;51.698;3.942;2022-10-31T01:39:16;7.53;;;6.83;;
9222;SDS011;7557;51.698;3.942;2022-10-31T01:41:46;7.77;;;6.80;;
9222;SDS011;7557;51.698;3.942;2022-10-31T01:47:20;6.73;;;6.23;;
9222;SDS011;7557;51.698;3.942;2022-10-31T01:50:01;7.87;;;7.17;;
9222;SDS011;7557;51.698;3.942;2022-10-31T01:52:32;7.03;;;6.43;;
9222;SDS011;7557;51.698;3.942;2022-10-31T01:55:05;7.13;;;6.63;;
9222;SDS011;7557;51.698;3.942;2022-10-31T01:57:37;6.87;;;6.17;;
9222;SDS011;7557;51.698;3.942;2022-10-31T02:00:09;7.27;;;6.53;;
9222;SDS011;7557;51.698;3.942;2022-10-31T02:02:37;6.87;;;6.27;;
9222;SDS011;7557;51.698;3.942;2022-10-31T02:05:06;7.33;;;6.70;;
9222;SDS011;7557;51.698;3.942;2022-10-31T02:07:38;7.07;;;6.50;;
9222;SDS011;7557;51.698;3.942;2022-10-31T02:10:09;11.73;;;7.00;;
9222;SDS011;7557;51.698;3.942;2022-10-31T02:12:38;7.13;;;6.57;;
9222;SDS011;7557;51.698;3.942;2022-10-31T02:15:08;6.70;;;6.10;;
9222;SDS011;7557;51.698;3.942;2022-10-31T02:17:36;7.20;;;6.53;;
9222;SDS011;7557;51.698;3.942;2022-10-31T02:20:06;7.22;;;6.45;;
9222;SDS011;7557;51.698;3.942;2022-10-31T02:22:40;7.40;;;6.80;;
9222;SDS011;7557;51.698;3.942;2022-10-31T02:25:38;8.00;;;7.37;;
9222;SDS011;7557;51.698;3.942;2022-10-31T02:28:38;9.97;;;8.03;;
9222;SDS011;7557;51.698;3.942;2022-10-31T02:31:33;8.45;;;7.65;;
9222;SDS011;7557;51.698;3.942;2022-10-31T02:34:09;10.83;;;8.43;;
9222;SDS011;7557;51.698;3.942;2022-10-31T02:36:46;8.50;;;7.60;;
9222;SDS011;7557;51.698;3.942;2022-10-31T02:39:22;8.27;;;7.57;;
9222;SDS011;7557;51.698;3.942;2022-10-31T02:41:57;8.43;;;7.73;;
9222;SDS011;7557;51.698;3.942;2022-10-31T02:44:34;8.88;;;7.93;;
9222;SDS011;7557;51.698;3.942;2022-10-31T02:47:07;9.17;;;8.37;;
9222;SDS011;7557;51.698;3.942;2022-10-31T02:49:40;8.83;;;7.70;;
9222;SDS011;7557;51.698;3.942;2022-10-31T02:52:14;8.20;;;7.30;;
9222;SDS011;7557;51.698;3.942;2022-10-31T02:54:45;7.70;;;7.00;;
9222;SDS011;7557;51.698;3.942;2022-10-31T02:57:13;8.68;;;7.85;;
9222;SDS011;7557;51.698;3.942;2022-10-31T02:59:44;7.77;;;7.17;;
9222;SDS011;7557;51.698;3.942;2022-10-31T03:02:23;7.80;;;7.10;;
9222;SDS011;7557;51.698;3.942;2022-10-31T03:05:12;7.80;;;7.30;;
9222;SDS011;7557;51.698;3.942;2022-10-31T03:07:51;8.10;;;7.40;;
9222;SDS011;7557;51.698;3.942;2022-10-31T03:10:28;7.60;;;6.90;;
9222;SDS011;7557;51.698;3.942;2022-10-31T03:13:05;7.33;;;6.63;;
9222;SDS011;7557;51.698;3.942;2022-10-31T03:15:37;8.00;;;7.20;;
9222;SDS011;7557;51.698;3.942;2022-10-31T03:18:11;8.02;;;7.18;;
9222;SDS011;7557;51.698;3.942;2022-10-31T03:20:44;7.93;;;7.20;;
9222;SDS011;7557;51.698;3.942;2022-10-31T03:23:17;7.87;;;7.17;;
9222;SDS011;7557;51.698;3.942;2022-10-31T03:25:48;8.73;;;7.83;;
9222;SDS011;7557;51.698;3.942;2022-10-31T03:28:17;7.87;;;7.03;;
9222;SDS011;7557;51.698;3.942;2022-10-31T03:30:48;9.53;;;7.93;;
9222;SDS011;7557;51.698;3.942;2022-10-31T03:33:21;8.93;;;8.13;;
9222;SDS011;7557;51.698;3.942;2022-10-31T03:35:53;8.97;;;8.07;;
9222;SDS011;7557;51.698;3.942;2022-10-31T03:38:22;7.93;;;7.37;;
9222;SDS011;7557;51.698;3.942;2022-10-31T03:40:50;9.23;;;8.17;;
9222;SDS011;7557;51.698;3.942;2022-10-31T03:43:21;9.33;;;8.13;;
9222;SDS011;7557;51.698;3.942;2022-10-31T03:45:52;8.07;;;7.37;;
9222;SDS011;7557;51.698;3.942;2022-10-31T03:48:21;8.60;;;7.80;;
9222;SDS011;7557;51.698;3.942;2022-10-31T03:50:51;8.53;;;7.80;;
9222;SDS011;7557;51.698;3.942;2022-10-31T03:53:30;8.83;;;7.63;;
9222;SDS011;7557;51.698;3.942;2022-10-31T03:56:01;6.90;;;6.40;;
9222;SDS011;7557;51.698;3.942;2022-10-31T03:58:35;7.90;;;7.00;;
9222;SDS011;7557;51.698;3.942;2022-10-31T04:01:06;7.57;;;6.93;;
9222;SDS011;7557;51.698;3.942;2022-10-31T04:03:39;8.20;;;6.97;;
9222;SDS011;7557;51.698;3.942;2022-10-31T04:06:08;8.40;;;7.77;;
9222;SDS011;7557;51.698;3.942;2022-10-31T04:08:42;9.10;;;8.07;;
9222;SDS011;7557;51.698;3.942;2022-10-31T04:11:13;10.07;;;9.03;;
9222;SDS011;7557;51.698;3.942;2022-10-31T04:13:44;10.23;;;8.83;;
9222;SDS011;7557;51.698;3.942;2022-10-31T04:16:14;11.00;;;9.67;;
9222;SDS011;7557;51.698;3.942;2022-10-31T04:18:44;9.90;;;8.93;;
9222;SDS011;7557;51.698;3.942;2022-10-31T04:21:12;11.07;;;9.20;;
9222;SDS011;7557;51.698;3.942;2022-10-31T04:23:39;11.70;;;9.80;;
9222;SDS011;7557;51.698;3.942;2022-10-31T04:26:07;9.10;;;8.27;;
9222;SDS011;7557;51.698;3.942;2022-10-31T04:28:36;9.87;;;8.97;;
9222;SDS011;7557;51.698;3.942;2022-10-31T04:31:04;13.07;;;8.50;;
9222;SDS011;7557;51.698;3.942;2022-10-31T04:33:32;12.53;;;8.27;;
9222;SDS011;7557;51.698;3.942;2022-10-31T04:36:00;16.23;;;7.87;;
9222;SDS011;7557;51.698;3.942;2022-10-31T04:38:28;17.33;;;8.43;;
9222;SDS011;7557;51.698;3.942;2022-10-31T04:40:55;16.20;;;8.53;;
9222;SDS011;7557;51.698;3.942;2022-10-31T04:43:23;8.40;;;7.67;;
9222;SDS011;7557;51.698;3.942;2022-10-31T04:45:50;11.33;;;8.03;;
9222;SDS011;7557;51.698;3.942;2022-10-31T04:48:17;8.97;;;7.80;;
9222;SDS011;7557;51.698;3.942;2022-10-31T04:50:45;9.37;;;8.40;;
9222;SDS011;7557;51.698;3.942;2022-10-31T04:53:13;10.27;;;9.37;;
9222;SDS011;7557;51.698;3.942;2022-10-31T04:55:41;11.27;;;10.17;;
9222;SDS011;7557;51.698;3.942;2022-10-31T04:58:08;11.07;;;9.87;;
9222;SDS011;7557;51.698;3.942;2022-10-31T05:00:35;12.30;;;10.93;;
9222;SDS011;7557;51.698;3.942;2022-10-31T05:03:03;11.67;;;10.47;;
9222;SDS011;7557;51.698;3.942;2022-10-31T05:05:30;11.87;;;9.77;;
9222;SDS011;7557;51.698;3.942;2022-10-31T05:07:58;11.60;;;10.40;;
9222;SDS011;7557;51.698;3.942;2022-10-31T05:10:28;10.97;;;9.70;;
9222;SDS011;7557;51.698;3.942;2022-10-31T05:12:57;17.80;;;9.43;;
9222;SDS011;7557;51.698;3.942;2022-10-31T05:15:26;10.20;;;9.13;;
9222;SDS011;7557;51.698;3.942;2022-10-31T05:17:54;10.57;;;9.57;;
9222;SDS011;7557;51.698;3.942;2022-10-31T05:20:23;10.80;;;9.70;;
9222;SDS011;7557;51.698;3.942;2022-10-31T05:22:53;10.20;;;9.20;;
9222;SDS011;7557;51.698;3.942;2022-10-31T05:25:22;12.63;;;9.13;;
9222;SDS011;7557;51.698;3.942;2022-10-31T05:27:53;10.50;;;9.40;;
9222;SDS011;7557;51.698;3.942;2022-10-31T05:30:22;11.70;;;10.27;;
9222;SDS011;7557;51.698;3.942;2022-10-31T05:32:50;19.00;;;10.87;;
9222;SDS011;7557;51.698;3.942;2022-10-31T05:35:19;12.50;;;11.07;;
9222;SDS011;7557;51.698;3.942;2022-10-31T05:37:47;15.47;;;9.97;;
9222;SDS011;7557;51.698;3.942;2022-10-31T05:40:15;25.47;;;10.73;;
9222;SDS011;7557;51.698;3.942;2022-10-31T05:42:44;11.60;;;10.37;;
9222;SDS011;7557;51.698;3.942;2022-10-31T05:45:14;11.70;;;10.53;;
9222;SDS011;7557;51.698;3.942;2022-10-31T05:47:49;16.00;;;12.03;;
9222;SDS011;7557;51.698;3.942;2022-10-31T05:50:17;17.90;;;12.07;;
9222;SDS011;7557;51.698;3.942;2022-10-31T05:52:45;22.27;;;12.73;;
9222;SDS011;7557;51.698;3.942;2022-10-31T05:55:13;34.93;;;13.20;;
9222;SDS011;7557;51.698;3.942;2022-10-31T05:57:40;23.33;;;11.80;;
9222;SDS011;7557;51.698;3.942;2022-10-31T06:00:08;18.30;;;10.03;;
9222;SDS011;7557;51.698;3.942;2022-10-31T06:02:37;20.40;;;10.73;;
9222;SDS011;7557;51.698;3.942;2022-10-31T06:05:05;62.97;;;12.43;;
9222;SDS011;7557;51.698;3.942;2022-10-31T06:07:33;80.77;;;13.70;;
9222;SDS011;7557;51.698;3.942;2022-10-31T06:10:01;95.07;;;13.93;;
9222;SDS011;7557;51.698;3.942;2022-10-31T06:12:29;90.20;;;13.20;;
9222;SDS011;7557;51.698;3.942;2022-10-31T06:14:56;54.13;;;12.13;;
9222;SDS011;7557;51.698;3.942;2022-10-31T06:17:24;50.10;;;11.17;;
9222;SDS011;7557;51.698;3.942;2022-10-31T06:19:53;18.60;;;10.73;;
9222;SDS011;7557;51.698;3.942;2022-10-31T06:22:20;39.40;;;9.97;;
9222;SDS011;7557;51.698;3.942;2022-10-31T06:24:47;30.27;;;8.77;;
9222;SDS011;7557;51.698;3.942;2022-10-31T06:27:14;41.90;;;9.80;;
9222;SDS011;7557;51.698;3.942;2022-10-31T06:29:42;15.83;;;8.70;;
9222;SDS011;7557;51.698;3.942;2022-10-31T06:32:11;42.47;;;10.37;;
9222;SDS011;7557;51.698;3.942;2022-10-31T06:34:39;23.67;;;10.77;;
9222;SDS011;7557;51.698;3.942;2022-10-31T06:37:08;30.90;;;11.13;;
9222;SDS011;7557;51.698;3.942;2022-10-31T06:39:36;40.83;;;11.50;;
9222;SDS011;7557;51.698;3.942;2022-10-31T06:42:04;45.00;;;10.67;;
9222;SDS011;7557;51.698;3.942;2022-10-31T06:44:31;16.77;;;8.83;;
9222;SDS011;7557;51.698;3.942;2022-10-31T06:46:59;44.70;;;10.50;;
9222;SDS011;7557;51.698;3.942;2022-10-31T06:49:26;28.20;;;9.90;;
9222;SDS011;7557;51.698;3.942;2022-10-31T06:51:54;51.57;;;12.20;;
9222;SDS011;7557;51.698;3.942;2022-10-31T06:54:22;32.00;;;11.90;;
9222;SDS011;7557;51.698;3.942;2022-10-31T06:56:50;46.77;;;13.10;;
9222;SDS011;7557;51.698;3.942;2022-10-31T06:59:17;32.00;;;13.47;;
9222;SDS011;7557;51.698;3.942;2022-10-31T07:01:45;24.00;;;14.67;;
9222;SDS011;7557;51.698;3.942;2022-10-31T07:04:12;18.07;;;14.90;;
9222;SDS011;7557;51.698;3.942;2022-10-31T07:06:40;22.70;;;12.67;;
9222;SDS011;7557;51.698;3.942;2022-10-31T07:09:07;15.87;;;11.50;;
9222;SDS011;7557;51.698;3.942;2022-10-31T07:11:36;17.40;;;11.57;;
9222;SDS011;7557;51.698;3.942;2022-10-31T07:14:04;12.10;;;10.80;;
9222;SDS011;7557;51.698;3.942;2022-10-31T07:16:31;21.30;;;13.10;;
9222;SDS011;7557;51.698;3.942;2022-10-31T07:18:59;15.27;;;10.93;;
9222;SDS011;7557;51.698;3.942;2022-10-31T07:21:26;88.77;;;17.20;;
9222;SDS011;7557;51.698;3.942;2022-10-31T07:23:54;18.00;;;11.30;;
9222;SDS011;7557;51.698;3.942;2022-10-31T07:26:21;84.57;;;18.60;;
9222;SDS011;7557;51.698;3.942;2022-10-31T07:28:50;45.57;;;14.10;;
9222;SDS011;7557;51.698;3.942;2022-10-31T07:31:17;15.67;;;12.10;;
9222;SDS011;7557;51.698;3.942;2022-10-31T07:33:45;99.53;;;19.27;;
9222;SDS011;7557;51.698;3.942;2022-10-31T07:36:12;14.90;;;11.47;;
9222;SDS011;7557;51.698;3.942;2022-10-31T07:38:40;13.93;;;12.40;;
9222;SDS011;7557;51.698;3.942;2022-10-31T07:41:08;14.83;;;12.53;;
9222;SDS011;7557;51.698;3.942;2022-10-31T07:43:35;17.53;;;13.73;;
9222;SDS011;7557;51.698;3.942;2022-10-31T07:46:04;16.60;;;13.30;;
9222;SDS011;7557;51.698;3.942;2022-10-31T07:48:32;18.83;;;14.93;;
9222;SDS011;7557;51.698;3.942;2022-10-31T07:51:00;19.43;;;14.23;;
9222;SDS011;7557;51.698;3.942;2022-10-31T07:53:27;18.00;;;14.70;;
9222;SDS011;7557;51.698;3.942;2022-10-31T07:55:54;23.20;;;15.30;;
9222;SDS011;7557;51.698;3.942;2022-10-31T07:58:22;20.53;;;14.50;;
9222;SDS011;7557;51.698;3.942;2022-10-31T08:00:50;20.33;;;14.07;;
9222;SDS011;7557;51.698;3.942;2022-10-31T08:03:19;19.30;;;14.20;;
9222;SDS011;7557;51.698;3.942;2022-10-31T08:05:46;22.37;;;14.83;;
9222;SDS011;7557;51.698;3.942;2022-10-31T08:08:14;16.50;;;13.60;;
9222;SDS011;7557;51.698;3.942;2022-10-31T08:10:42;18.63;;;13.73;;
9222;SDS011;7557;51.698;3.942;2022-10-31T08:13:11;19.13;;;13.37;;
9222;SDS011;7557;51.698;3.942;2022-10-31T08:15:39;15.77;;;12.90;;
9222;SDS011;7557;51.698;3.942;2022-10-31T08:18:11;20.30;;;14.00;;
9222;SDS011;7557;51.698;3.942;2022-10-31T08:20:41;18.17;;;14.37;;
9222;SDS011;7557;51.698;3.942;2022-10-31T08:23:09;16.90;;;13.90;;
9222;SDS011;7557;51.698;3.942;2022-10-31T08:25:38;16.93;;;13.57;;
9222;SDS011;7557;51.698;3.942;2022-10-31T08:28:07;21.60;;;14.27;;
9222;SDS011;7557;51.698;3.942;2022-10-31T08:30:37;18.47;;;13.57;;
9222;SDS011;7557;51.698;3.942;2022-10-31T08:33:06;17.17;;;12.60;;
9222;SDS011;7557;51.698;3.942;2022-10-31T08:35:35;17.10;;;13.57;;
9222;SDS011;7557;51.698;3.942;2022-10-31T08:38:04;17.30;;;12.70;;
9222;SDS011;7557;51.698;3.942;2022-10-31T08:40:32;18.90;;;14.30;;
9222;SDS011;7557;51.698;3.942;2022-10-31T08:43:01;16.40;;;14.30;;
9222;SDS011;7557;51.698;3.942;2022-10-31T08:45:29;16.70;;;13.77;;
9222;SDS011;7557;51.698;3.942;2022-10-31T08:47:58;20.70;;;15.70;;
9222;SDS011;7557;51.698;3.942;2022-10-31T08:50:27;20.37;;;16.00;;
9222;SDS011;7557;51.698;3.942;2022-10-31T08:52:59;23.80;;;16.90;;
9222;SDS011;7557;51.698;3.942;2022-10-31T08:55:29;22.17;;;16.25;;
9222;SDS011;7557;51.698;3.942;2022-10-31T08:57:56;25.77;;;17.07;;
9222;SDS011;7557;51.698;3.942;2022-10-31T09:00:24;23.65;;;16.55;;
9222;SDS011;7557;51.698;3.942;2022-10-31T09:02:55;23.13;;;15.68;;
9222;SDS011;7557;51.698;3.942;2022-10-31T09:05:23;25.00;;;16.67;;
9222;SDS011;7557;51.698;3.942;2022-10-31T09:07:54;18.45;;;16.50;;
9222;SDS011;7557;51.698;3.942;2022-10-31T09:10:23;22.63;;;18.27;;
9222;SDS011;7557;51.698;3.942;2022-10-31T09:12:56;19.75;;;16.67;;
9222;SDS011;7557;51.698;3.942;2022-10-31T09:15:24;21.23;;;17.63;;
9222;SDS011;7557;51.698;3.942;2022-10-31T09:17:52;18.58;;;16.55;;
9222;SDS011;7557;51.698;3.942;2022-10-31T09:20:19;18.73;;;14.98;;
9222;SDS011;7557;51.698;3.942;2022-10-31T09:22:47;18.48;;;14.90;;
9222;SDS011;7557;51.698;3.942;2022-10-31T09:25:21;19.17;;;15.13;;
9222;SDS011;7557;51.698;3.942;2022-10-31T09:27:49;20.05;;;15.05;;
9222;SDS011;7557;51.698;3.942;2022-10-31T09:30:18;16.45;;;14.35;;
9222;SDS011;7557;51.698;3.942;2022-10-31T09:32:45;18.95;;;15.48;;
9222;SDS011;7557;51.698;3.942;2022-10-31T09:35:13;16.75;;;14.93;;
9222;SDS011;7557;51.698;3.942;2022-10-31T09:37:40;17.00;;;15.13;;
9222;SDS011;7557;51.698;3.942;2022-10-31T09:40:08;15.82;;;14.10;;
9222;SDS011;7557;51.698;3.942;2022-10-31T09:42:39;16.27;;;14.68;;
9222;SDS011;7557;51.698;3.942;2022-10-31T09:45:22;16.45;;;13.30;;
9222;SDS011;7557;51.698;3.942;2022-10-31T09:47:59;15.52;;;13.05;;
9222;SDS011;7557;51.698;3.942;2022-10-31T09:50:37;15.75;;;13.85;;
9222;SDS011;7557;51.698;3.942;2022-10-31T09:53:10;15.95;;;12.57;;
9222;SDS011;7557;51.698;3.942;2022-10-31T09:55:44;15.23;;;12.50;;
9222;SDS011;7557;51.698;3.942;2022-10-31T09:58:15;16.33;;;13.15;;
9222;SDS011;7557;51.698;3.942;2022-10-31T10:00:47;14.32;;;11.80;;
9222;SDS011;7557;51.698;3.942;2022-10-31T10:03:17;13.88;;;11.73;;
9222;SDS011;7557;51.698;3.942;2022-10-31T10:05:59;15.07;;;12.23;;
9222;SDS011;7557;51.698;3.942;2022-10-31T10:08:34;12.57;;;11.32;;
9222;SDS011;7557;51.698;3.942;2022-10-31T10:11:06;13.32;;;10.73;;
9222;SDS011;7557;51.698;3.942;2022-10-31T10:13:55;12.95;;;9.68;;
9222;SDS011;7557;51.698;3.942;2022-10-31T10:16:39;14.65;;;10.77;;
9222;SDS011;7557;51.698;3.942;2022-10-31T10:19:32;13.45;;;11.48;;
9222;SDS011;7557;51.698;3.942;2022-10-31T10:22:12;12.35;;;11.25;;
9222;SDS011;7557;51.698;3.942;2022-10-31T10:24:50;14.85;;;11.77;;
9222;SDS011;7557;51.698;3.942;2022-10-31T10:27:30;12.98;;;11.55;;
9222;SDS011;7557;51.698;3.942;2022-10-31T10:30:11;13.52;;;11.52;;
9222;SDS011;7557;51.698;3.942;2022-10-31T10:32:44;12.68;;;11.38;;
9222;SDS011;7557;51.698;3.942;2022-10-31T10:35:17;14.18;;;10.52;;
9222;SDS011;7557;51.698;3.942;2022-10-31T10:37:49;12.93;;;11.60;;
9222;SDS011;7557;51.698;3.942;2022-10-31T10:40:20;15.38;;;11.38;;
9222;SDS011;7557;51.698;3.942;2022-10-31T10:42:53;14.98;;;11.57;;
9222;SDS011;7557;51.698;3.942;2022-10-31T10:45:44;14.07;;;10.80;;
9222;SDS011;7557;51.698;3.942;2022-10-31T10:48:38;14.13;;;10.85;;
9222;SDS011;7557;51.698;3.942;2022-10-31T10:51:12;14.23;;;10.10;;
9222;SDS011;7557;51.698;3.942;2022-10-31T10:56:45;16.98;;;10.60;;
9222;SDS011;7557;51.698;3.942;2022-10-31T10:59:23;11.63;;;10.52;;
9222;SDS011;7557;51.698;3.942;2022-10-31T11:01:51;14.05;;;11.05;;
9222;SDS011;7557;51.698;3.942;2022-10-31T11:04:31;12.07;;;10.55;;
9222;SDS011;7557;51.698;3.942;2022-10-31T11:07:01;12.35;;;10.50;;
9222;SDS011;7557;51.698;3.942;2022-10-31T11:09:31;15.40;;;10.68;;
9222;SDS011;7557;51.698;3.942;2022-10-31T11:12:00;12.60;;;11.02;;
9222;SDS011;7557;51.698;3.942;2022-10-31T11:14:34;12.40;;;10.45;;
9222;SDS011;7557;51.698;3.942;2022-10-31T11:17:09;11.43;;;10.15;;
9222;SDS011;7557;51.698;3.942;2022-10-31T11:19:46;14.07;;;10.23;;
9222;SDS011;7557;51.698;3.942;2022-10-31T11:22:14;14.57;;;10.68;;
9222;SDS011;7557;51.698;3.942;2022-10-31T11:24:43;13.43;;;10.60;;
9222;SDS011;7557;51.698;3.942;2022-10-31T11:27:13;13.35;;;10.65;;
9222;SDS011;7557;51.698;3.942;2022-10-31T11:29:42;16.88;;;11.95;;
9222;SDS011;7557;51.698;3.942;2022-10-31T11:32:16;14.23;;;11.00;;
9222;SDS011;7557;51.698;3.942;2022-10-31T11:34:49;12.45;;;10.45;;
9222;SDS011;7557;51.698;3.942;2022-10-31T11:37:19;11.93;;;10.65;;
9222;SDS011;7557;51.698;3.942;2022-10-31T11:39:51;12.18;;;10.43;;
9222;SDS011;7557;51.698;3.942;2022-10-31T11:42:22;13.38;;;11.52;;
9222;SDS011;7557;51.698;3.942;2022-10-31T11:44:51;17.95;;;9.85;;
9222;SDS011;7557;51.698;3.942;2022-10-31T11:47:22;12.27;;;10.77;;
9222;SDS011;7557;51.698;3.942;2022-10-31T11:49:54;12.70;;;10.43;;
9222;SDS011;7557;51.698;3.942;2022-10-31T11:52:24;11.90;;;10.57;;
9222;SDS011;7557;51.698;3.942;2022-10-31T11:54:54;16.02;;;10.57;;
9222;SDS011;7557;51.698;3.942;2022-10-31T11:57:24;13.15;;;9.98;;
9222;SDS011;7557;51.698;3.942;2022-10-31T11:59:54;14.32;;;9.40;;
9222;SDS011;7557;51.698;3.942;2022-10-31T12:02:23;11.60;;;9.80;;
9222;SDS011;7557;51.698;3.942;2022-10-31T12:04:55;14.43;;;9.10;;
9222;SDS011;7557;51.698;3.942;2022-10-31T12:07:29;12.73;;;11.18;;
9222;SDS011;7557;51.698;3.942;2022-10-31T12:09:57;14.38;;;11.85;;
9222;SDS011;7557;51.698;3.942;2022-10-31T12:12:34;15.05;;;12.70;;
9222;SDS011;7557;51.698;3.942;2022-10-31T12:15:18;16.17;;;13.95;;
9222;SDS011;7557;51.698;3.942;2022-10-31T12:17:58;20.85;;;13.73;;
9222;SDS011;7557;51.698;3.942;2022-10-31T12:20:40;19.20;;;13.90;;
9222;SDS011;7557;51.698;3.942;2022-10-31T12:23:17;15.85;;;14.18;;
9222;SDS011;7557;51.698;3.942;2022-10-31T12:25:53;20.25;;;15.70;;
9222;SDS011;7557;51.698;3.942;2022-10-31T12:28:35;23.13;;;16.40;;
9222;SDS011;7557;51.698;3.942;2022-10-31T12:31:21;18.38;;;16.38;;
9222;SDS011;7557;51.698;3.942;2022-10-31T12:34:01;19.58;;;15.55;;
9222;SDS011;7557;51.698;3.942;2022-10-31T12:36:49;21.95;;;16.42;;
9222;SDS011;7557;51.698;3.942;2022-10-31T12:39:25;20.83;;;16.75;;
9222;SDS011;7557;51.698;3.942;2022-10-31T12:42:04;23.75;;;17.13;;
9222;SDS011;7557;51.698;3.942;2022-10-31T12:44:48;22.98;;;18.35;;
9222;SDS011;7557;51.698;3.942;2022-10-31T12:47:43;25.77;;;18.70;;
9222;SDS011;7557;51.698;3.942;2022-10-31T12:50:38;22.60;;;17.73;;
9222;SDS011;7557;51.698;3.942;2022-10-31T12:53:23;27.27;;;20.25;;
9222;SDS011;7557;51.698;3.942;2022-10-31T12:56:02;24.23;;;19.58;;
9222;SDS011;7557;51.698;3.942;2022-10-31T12:58:39;26.77;;;20.40;;
9222;SDS011;7557;51.698;3.942;2022-10-31T13:01:25;30.55;;;21.77;;
9222;SDS011;7557;51.698;3.942;2022-10-31T13:04:02;32.17;;;22.42;;
9222;SDS011;7557;51.698;3.942;2022-10-31T13:06:38;32.15;;;24.27;;
9222;SDS011;7557;51.698;3.942;2022-10-31T13:09:09;34.30;;;25.17;;
9222;SDS011;7557;51.698;3.942;2022-10-31T13:11:41;37.53;;;27.35;;
9222;SDS011;7557;51.698;3.942;2022-10-31T13:14:13;41.95;;;28.52;;
9222;SDS011;7557;51.698;3.942;2022-10-31T13:16:50;41.88;;;28.55;;
9222;SDS011;7557;51.698;3.942;2022-10-31T13:19:18;41.70;;;28.27;;
9222;SDS011;7557;51.698;3.942;2022-10-31T13:21:51;40.13;;;28.95;;
9222;SDS011;7557;51.698;3.942;2022-10-31T13:24:35;40.80;;;29.42;;
9222;SDS011;7557;51.698;3.942;2022-10-31T13:27:17;41.15;;;29.35;;
9222;SDS011;7557;51.698;3.942;2022-10-31T13:29:52;43.95;;;30.60;;
9222;SDS011;7557;51.698;3.942;2022-10-31T13:32:28;38.65;;;28.98;;
9222;SDS011;7557;51.698;3.942;2022-10-31T13:35:02;36.85;;;29.15;;
9222;SDS011;7557;51.698;3.942;2022-10-31T13:37:34;41.28;;;27.92;;
9222;SDS011;7557;51.698;3.942;2022-10-31T13:40:11;40.35;;;28.35;;
9222;SDS011;7557;51.698;3.942;2022-10-31T13:42:55;46.10;;;30.95;;
9222;SDS011;7557;51.698;3.942;2022-10-31T13:45:27;47.28;;;30.52;;
9222;SDS011;7557;51.698;3.942;2022-10-31T13:47:55;48.83;;;30.23;;
9222;SDS011;7557;51.698;3.942;2022-10-31T13:50:24;39.30;;;29.92;;
9222;SDS011;7557;51.698;3.942;2022-10-31T13:53:03;42.78;;;31.27;;
9222;SDS011;7557;51.698;3.942;2022-10-31T13:55:43;41.80;;;30.85;;
9222;SDS011;7557;51.698;3.942;2022-10-31T13:58:24;48.75;;;32.63;;
9222;SDS011;7557;51.698;3.942;2022-10-31T14:01:01;46.65;;;33.25;;
9222;SDS011;7557;51.698;3.942;2022-10-31T14:03:39;49.55;;;32.95;;
9222;SDS011;7557;51.698;3.942;2022-10-31T14:06:09;47.15;;;33.22;;
9222;SDS011;7557;51.698;3.942;2022-10-31T14:08:39;46.17;;;34.17;;
9222;SDS011;7557;51.698;3.942;2022-10-31T14:11:18;50.63;;;33.25;;
9222;SDS011;7557;51.698;3.942;2022-10-31T14:13:52;49.50;;;34.80;;
9222;SDS011;7557;51.698;3.942;2022-10-31T14:16:22;51.05;;;34.03;;
9222;SDS011;7557;51.698;3.942;2022-10-31T14:18:56;54.33;;;35.13;;
9222;SDS011;7557;51.698;3.942;2022-10-31T14:21:27;52.80;;;34.60;;
9222;SDS011;7557;51.698;3.942;2022-10-31T14:23:57;55.15;;;35.33;;
9222;SDS011;7557;51.698;3.942;2022-10-31T14:26:35;55.78;;;34.97;;
9222;SDS011;7557;51.698;3.942;2022-10-31T14:31:53;52.53;;;34.90;;
9222;SDS011;7557;51.698;3.942;2022-10-31T14:34:28;57.53;;;34.47;;
9222;SDS011;7557;51.698;3.942;2022-10-31T14:40:10;55.97;;;35.08;;
9222;SDS011;7557;51.698;3.942;2022-10-31T14:45:44;55.45;;;34.70;;
9222;SDS011;7557;51.698;3.942;2022-10-31T14:48:24;51.35;;;33.45;;
9222;SDS011;7557;51.698;3.942;2022-10-31T14:51:08;56.30;;;34.90;;
9222;SDS011;7557;51.698;3.942;2022-10-31T14:53:41;57.67;;;35.50;;
9222;SDS011;7557;51.698;3.942;2022-10-31T14:56:13;54.42;;;34.25;;
9222;SDS011;7557;51.698;3.942;2022-10-31T14:58:48;58.63;;;34.70;;
9222;SDS011;7557;51.698;3.942;2022-10-31T15:01:18;53.75;;;33.95;;
9222;SDS011;7557;51.698;3.942;2022-10-31T15:03:50;67.28;;;36.15;;
9222;SDS011;7557;51.698;3.942;2022-10-31T15:06:19;55.92;;;35.03;;
9222;SDS011;7557;51.698;3.942;2022-10-31T15:08:48;58.67;;;35.63;;
9222;SDS011;7557;51.698;3.942;2022-10-31T15:11:17;55.63;;;36.47;;
9222;SDS011;7557;51.698;3.942;2022-10-31T15:13:47;57.90;;;35.47;;
9222;SDS011;7557;51.698;3.942;2022-10-31T15:16:18;63.95;;;37.30;;
9222;SDS011;7557;51.698;3.942;2022-10-31T15:18:48;58.47;;;35.78;;
9222;SDS011;7557;51.698;3.942;2022-10-31T15:21:21;56.95;;;34.28;;
9222;SDS011;7557;51.698;3.942;2022-10-31T15:23:51;57.45;;;36.40;;
9222;SDS011;7557;51.698;3.942;2022-10-31T15:26:21;59.78;;;35.55;;
9222;SDS011;7557;51.698;3.942;2022-10-31T15:29:01;62.03;;;36.90;;
9222;SDS011;7557;51.698;3.942;2022-10-31T15:31:30;59.92;;;34.92;;
9222;SDS011;7557;51.698;3.942;2022-10-31T15:33:59;61.38;;;35.85;;
9222;SDS011;7557;51.698;3.942;2022-10-31T15:36:28;63.40;;;37.50;;
9222;SDS011;7557;51.698;3.942;2022-10-31T15:38:57;67.90;;;37.22;;